Time;durP1;ratioP1;P1;durP2;ratioP2;P2;SDS_P1;SDS_P2;PMS_P1;PMS_P2;Temp;Humidity;BMP_temperature;BMP_pressure;BME280_temperature;BME280_humidity;BME280_pressure;Samples;Min_cycle;Max_cycle;Signal;HPM_P1;HPM_P2
2021/03/29 00:00:23;;;;;;;7.90;2.93;;;9.60;81.30;;;;;;5091856;28;20404;-68
2021/03/29 00:02:49;;;;;;;10.30;2.87;;;9.60;81.10;;;;;;5091609;28;20298;-68
2021/03/29 00:05:17;;;;;;;8.97;2.80;;;9.70;81.10;;;;;;5092179;28;20779;-68
2021/03/29 00:07:46;;;;;;;7.57;2.77;;;9.70;81.00;;;;;;5091541;28;20367;-68
2021/03/29 00:10:13;;;;;;;11.17;3.00;;;9.70;80.80;;;;;;5092373;28;20302;-67
2021/03/29 00:12:42;;;;;;;7.67;2.90;;;9.70;80.60;;;;;;5091320;28;20297;-68
2021/03/29 00:15:12;;;;;;;8.67;3.27;;;9.70;80.70;;;;;;5091860;28;20314;-68
2021/03/29 00:17:40;;;;;;;11.33;3.27;;;9.80;80.50;;;;;;5091764;28;20348;-68
2021/03/29 00:20:12;;;;;;;8.67;2.67;;;9.80;80.40;;;;;;5091058;28;20333;-68
2021/03/29 00:22:39;;;;;;;9.65;3.13;;;9.80;80.40;;;;;;5092161;28;20346;-68
2021/03/29 00:25:12;;;;;;;8.63;3.13;;;9.80;80.30;;;;;;5092128;28;20048;-68
2021/03/29 00:27:39;;;;;;;11.73;3.10;;;9.80;80.30;;;;;;5091162;28;20304;-68
2021/03/29 00:30:27;;;;;;;9.30;2.83;;;9.70;80.20;;;;;;5091787;28;20055;-68
2021/03/29 00:32:54;;;;;;;10.13;2.77;;;9.70;80.20;;;;;;5090852;28;20098;-67
2021/03/29 00:35:23;;;;;;;11.83;2.87;;;9.70;80.20;;;;;;5091176;28;20320;-67
2021/03/29 00:37:52;;;;;;;10.10;3.17;;;9.70;80.20;;;;;;5091258;28;20290;-68
2021/03/29 00:40:20;;;;;;;7.73;2.57;;;9.70;80.20;;;;;;5091791;28;20302;-68
2021/03/29 00:42:49;;;;;;;6.77;3.07;;;9.70;80.20;;;;;;5090861;28;20286;-67
2021/03/29 00:45:17;;;;;;;10.37;2.83;;;9.70;80.20;;;;;;5091619;28;20331;-68
2021/03/29 00:47:43;;;;;;;12.13;3.20;;;9.70;80.10;;;;;;5090922;28;20301;-67
2021/03/29 00:50:12;;;;;;;9.90;3.33;;;9.70;80.10;;;;;;5091541;28;20302;-67
2021/03/29 00:52:39;;;;;;;10.83;2.70;;;9.80;80.30;;;;;;5091308;28;20545;-67
2021/03/29 00:55:07;;;;;;;9.60;3.40;;;9.80;80.00;;;;;;5090593;28;20324;-68
2021/03/29 00:57:34;;;;;;;8.60;3.43;;;9.80;80.00;;;;;;5091522;28;20290;-68
2021/03/29 01:00:00;;;;;;;10.87;3.30;;;9.90;80.00;;;;;;5091492;28;20294;-68
2021/03/29 01:02:27;;;;;;;9.33;3.13;;;9.90;79.70;;;;;;5091026;28;20305;-67
2021/03/29 01:04:53;;;;;;;12.57;3.43;;;9.90;79.60;;;;;;5091030;28;20355;-68
2021/03/29 01:07:20;;;;;;;7.63;2.90;;;9.90;79.60;;;;;;5091537;28;20302;-67
2021/03/29 01:09:47;;;;;;;11.80;3.30;;;10.00;79.50;;;;;;5072097;28;20048;-67
2021/03/29 01:12:15;;;;;;;9.83;3.13;;;9.90;79.40;;;;;;5091680;28;20298;-67
2021/03/29 01:14:45;;;;;;;10.90;3.03;;;10.00;79.40;;;;;;5094360;28;20344;-67
2021/03/29 01:17:23;;;;;;;9.97;2.90;;;9.90;79.40;;;;;;5094911;28;20853;-68
2021/03/29 01:20:02;;;;;;;11.90;3.10;;;9.90;79.20;;;;;;5095193;28;20055;-67
2021/03/29 01:22:40;;;;;;;8.37;2.97;;;9.90;79.40;;;;;;5095888;28;20300;-67
2021/03/29 01:25:06;;;;;;;9.43;2.90;;;9.90;79.40;;;;;;5094676;28;20313;-68
2021/03/29 01:27:48;;;;;;;7.53;2.77;;;9.90;79.50;;;;;;5095248;28;20290;-68
2021/03/29 01:30:17;;;;;;;8.20;3.03;;;9.90;80.30;;;;;;5094719;28;20512;-67
2021/03/29 01:32:45;;;;;;;9.50;3.20;;;10.00;79.40;;;;;;5095294;28;20302;-68
2021/03/29 01:35:21;;;;;;;9.20;3.00;;;10.00;79.40;;;;;;5095301;28;20310;-67
2021/03/29 01:37:49;;;;;;;12.17;3.20;;;10.00;79.40;;;;;;5094101;28;20290;-68
2021/03/29 01:40:17;;;;;;;8.57;2.90;;;10.00;79.30;;;;;;5095382;28;21016;-69
2021/03/29 01:42:45;;;;;;;9.23;2.97;;;10.00;79.30;;;;;;5094955;28;20298;-68
2021/03/29 01:45:12;;;;;;;11.60;2.73;;;10.10;79.20;;;;;;5094154;28;20320;-69
2021/03/29 01:47:40;;;;;;;11.03;3.73;;;10.10;79.10;;;;;;5095081;28;20298;-68
2021/03/29 01:50:09;;;;;;;10.83;2.73;;;10.10;79.00;;;;;;5094816;28;20328;-67
2021/03/29 01:52:35;;;;;;;11.03;3.23;;;10.10;78.90;;;;;;5094082;28;20306;-68
2021/03/29 01:55:04;;;;;;;8.70;3.03;;;10.10;78.80;;;;;;5094644;28;20318;-67
2021/03/29 01:57:29;;;;;;;9.47;2.80;;;10.20;78.70;;;;;;5094831;28;20493;-68
2021/03/29 01:59:55;;;;;;;9.63;2.80;;;10.20;78.70;;;;;;5093723;28;20095;-68
2021/03/29 02:02:22;;;;;;;12.23;3.40;;;10.20;78.50;;;;;;5094666;28;20436;-68
2021/03/29 02:04:49;;;;;;;8.83;2.90;;;10.20;78.50;;;;;;5094180;28;20048;-68
2021/03/29 02:07:17;;;;;;;12.73;3.40;;;10.30;78.40;;;;;;5094080;28;20377;-68
2021/03/29 02:09:44;;;;;;;11.80;3.10;;;10.30;78.30;;;;;;5094420;28;20324;-68
2021/03/29 02:12:10;;;;;;;9.73;3.10;;;10.30;78.20;;;;;;5093687;28;20047;-68
2021/03/29 02:14:36;;;;;;;10.03;3.20;;;10.30;77.90;;;;;;5094397;28;20317;-67
2021/03/29 02:17:07;;;;;;;8.30;2.93;;;10.30;77.90;;;;;;5094360;28;20048;-68
2021/03/29 02:19:35;;;;;;;9.67;3.40;;;10.40;78.00;;;;;;5093636;28;20052;-68
2021/03/29 02:22:02;;;;;;;7.83;3.37;;;10.40;77.90;;;;;;5094176;28;20415;-68
2021/03/29 02:24:28;;;;;;;6.80;2.70;;;10.40;77.80;;;;;;5094352;28;20301;-68
2021/03/29 02:26:54;;;;;;;12.07;3.13;;;10.40;77.80;;;;;;5092991;28;20297;-68
2021/03/29 02:29:26;;;;;;;9.60;3.50;;;10.40;77.80;;;;;;5094453;28;20302;-68
2021/03/29 02:31:59;;;;;;;10.77;2.57;;;10.40;77.90;;;;;;5093849;28;20127;-68
2021/03/29 02:34:25;;;;;;;9.20;3.65;;;10.40;77.90;;;;;;5093525;28;20314;-67
2021/03/29 02:36:52;;;;;;;9.60;3.33;;;10.30;77.80;;;;;;5093577;28;20080;-67
2021/03/29 02:39:22;;;;;;;7.97;2.83;;;10.30;77.90;;;;;;5094127;28;20052;-67
2021/03/29 02:41:51;;;;;;;9.73;3.43;;;10.30;78.00;;;;;;5092919;28;20282;-68
2021/03/29 02:44:17;;;;;;;11.10;3.67;;;10.30;78.10;;;;;;5093773;28;20501;-67
2021/03/29 02:46:47;;;;;;;6.73;3.13;;;10.30;78.20;;;;;;5093728;28;20063;-67
2021/03/29 02:49:15;;;;;;;14.23;3.75;;;10.20;78.20;;;;;;5093315;28;20135;-68
2021/03/29 02:51:43;;;;;;;11.07;4.07;;;10.20;78.00;;;;;;5093496;28;20040;-68
2021/03/29 02:54:09;;;;;;;10.13;3.53;;;10.30;78.10;;;;;;5093360;28;20052;-67
2021/03/29 02:56:45;;;;;;;7.87;3.30;;;10.20;78.10;;;;;;5093284;28;20058;-68
2021/03/29 02:59:18;;;;;;;8.87;3.90;;;10.20;78.10;;;;;;5093696;28;20823;-66
2021/03/29 03:01:45;;;;;;;11.57;3.67;;;10.30;78.10;;;;;;5092651;28;20286;-67
2021/03/29 03:04:13;;;;;;;12.53;3.17;;;10.30;78.20;;;;;;5093593;28;20306;-67
2021/03/29 03:06:39;;;;;;;8.70;3.67;;;10.30;78.20;;;;;;5093444;28;20313;-67
2021/03/29 03:09:07;;;;;;;9.53;3.93;;;10.20;78.10;;;;;;5092511;28;20306;-67
2021/03/29 03:11:34;;;;;;;8.40;4.03;;;10.30;78.20;;;;;;5093247;28;20290;-67
2021/03/29 03:14:03;;;;;;;9.63;3.50;;;10.30;78.20;;;;;;5093096;28;20404;-67
2021/03/29 03:16:32;;;;;;;10.37;3.17;;;10.30;78.10;;;;;;5092720;28;20305;-67
2021/03/29 03:18:58;;;;;;;8.00;3.00;;;10.30;78.20;;;;;;5093008;28;20462;-66
2021/03/29 03:21:24;;;;;;;12.43;3.80;;;10.30;78.10;;;;;;5093501;28;20377;-67
2021/03/29 03:23:52;;;;;;;5.80;3.60;;;10.20;78.00;;;;;;5091863;28;20484;-67
2021/03/29 03:26:18;;;;;;;12.63;4.03;;;10.30;78.00;;;;;;5093339;28;20048;-67
2021/03/29 03:28:44;;;;;;;10.83;3.47;;;10.20;78.00;;;;;;5092784;28;20766;-67
2021/03/29 03:31:10;;;;;;;13.47;3.93;;;10.20;78.10;;;;;;5092271;28;20374;-67
2021/03/29 03:33:36;;;;;;;10.10;4.17;;;10.20;78.10;;;;;;5092958;28;20051;-67
2021/03/29 03:36:02;;;;;;;9.90;4.63;;;10.20;78.20;;;;;;5092264;28;20314;-67
2021/03/29 03:38:34;;;;;;;11.93;4.17;;;10.20;78.30;;;;;;5092367;28;20040;-67
2021/03/29 03:41:09;;;;;;;11.43;4.67;;;10.10;78.40;;;;;;5092575;28;20048;-67
2021/03/29 03:43:37;;;;;;;8.60;3.63;;;10.10;78.50;;;;;;5091683;28;20297;-66
2021/03/29 03:46:11;;;;;;;11.67;3.60;;;10.10;78.60;;;;;;5092398;28;20293;-67
2021/03/29 03:48:38;;;;;;;10.50;3.87;;;10.10;78.70;;;;;;5092716;28;20351;-67
2021/03/29 03:51:05;;;;;;;10.67;4.13;;;10.00;78.70;;;;;;5091742;28;20298;-67
2021/03/29 03:53:32;;;;;;;11.07;4.23;;;10.00;78.80;;;;;;5092662;28;20377;-67
2021/03/29 03:56:00;;;;;;;7.93;3.77;;;9.90;78.80;;;;;;5092196;28;20339;-67
2021/03/29 03:58:27;;;;;;;10.43;4.00;;;9.90;79.00;;;;;;5091795;28;20298;-67
2021/03/29 04:00:53;;;;;;;14.40;4.90;;;9.90;79.10;;;;;;5092003;28;20328;-66
2021/03/29 04:03:19;;;;;;;9.57;3.80;;;9.80;79.00;;;;;;5092355;28;20485;-66
2021/03/29 04:05:45;;;;;;;15.50;5.03;;;9.80;79.10;;;;;;5091303;28;20052;-66
2021/03/29 04:08:12;;;;;;;8.80;4.50;;;9.80;79.20;;;;;;5092396;28;20040;-66
2021/03/29 04:13:29;;;;;;;13.57;4.53;;;9.80;79.30;;;;;;5091250;28;20285;-66
2021/03/29 04:15:57;;;;;;;7.30;4.20;;;9.80;79.40;;;;;;5091471;28;20806;-66
2021/03/29 04:18:23;;;;;;;10.20;3.80;;;9.70;79.50;;;;;;5092174;28;20375;-66
2021/03/29 04:20:50;;;;;;;12.47;4.37;;;9.80;79.60;;;;;;5090746;28;20329;-65
2021/03/29 04:23:22;;;;;;;8.97;4.17;;;9.80;79.70;;;;;;5092007;28;20040;-66
2021/03/29 04:25:47;;;;;;;9.25;4.82;;;9.80;79.70;;;;;;5090857;28;20290;-66
2021/03/29 04:28:13;;;;;;;11.13;4.10;;;9.80;79.60;;;;;;5092163;28;20055;-66
2021/03/29 04:30:39;;;;;;;16.07;4.80;;;9.70;79.60;;;;;;5091753;28;20060;-67
2021/03/29 04:33:05;;;;;;;14.20;5.07;;;9.70;79.70;;;;;;5090861;28;20051;-66
2021/03/29 04:35:32;;;;;;;10.20;3.90;;;9.70;79.70;;;;;;5091458;28;20408;-66
2021/03/29 04:37:58;;;;;;;13.57;5.20;;;9.70;79.80;;;;;;5091380;28;20343;-67
2021/03/29 04:40:26;;;;;;;10.90;4.77;;;9.70;79.90;;;;;;5091396;28;20296;-67
2021/03/29 04:42:52;;;;;;;11.87;4.87;;;9.70;79.90;;;;;;5091207;28;20351;-67
2021/03/29 04:45:19;;;;;;;12.87;4.00;;;9.70;79.90;;;;;;5091639;28;20301;-66
2021/03/29 04:47:45;;;;;;;10.37;4.57;;;9.70;79.90;;;;;;5089696;28;20308;-67
2021/03/29 04:50:13;;;;;;;12.83;4.87;;;9.70;80.00;;;;;;5091523;28;20771;-66
2021/03/29 04:52:38;;;;;;;12.47;4.37;;;9.60;80.10;;;;;;5091217;28;20044;-66
2021/03/29 04:55:05;;;;;;;12.67;3.90;;;9.60;80.20;;;;;;5090665;28;20363;-66
2021/03/29 04:57:31;;;;;;;10.73;4.30;;;9.60;80.20;;;;;;5091628;28;20390;-66
2021/03/29 04:59:57;;;;;;;11.93;4.47;;;9.60;80.30;;;;;;5091119;28;20305;-66
2021/03/29 05:02:22;;;;;;;11.50;4.13;;;9.60;80.30;;;;;;5090939;28;20183;-67
2021/03/29 05:04:48;;;;;;;10.43;3.97;;;9.60;80.30;;;;;;5090817;28;20098;-67
2021/03/29 05:07:14;;;;;;;12.40;4.47;;;9.70;80.40;;;;;;5091335;28;20059;-66
2021/03/29 05:09:40;;;;;;;10.10;3.43;;;9.70;80.30;;;;;;5090527;28;20048;-66
2021/03/29 05:12:10;;;;;;;10.73;4.50;;;9.70;80.20;;;;;;5073481;28;20048;-66
2021/03/29 05:14:37;;;;;;;12.47;3.97;;;9.80;80.10;;;;;;5090797;28;20791;-66
2021/03/29 05:17:05;;;;;;;10.07;3.83;;;9.70;80.10;;;;;;5090259;28;20329;-67
2021/03/29 05:19:30;;;;;;;10.80;4.20;;;9.70;80.10;;;;;;5091204;28;20313;-66
2021/03/29 05:21:56;;;;;;;10.87;4.00;;;9.70;80.10;;;;;;5090078;28;20306;-67
2021/03/29 05:24:22;;;;;;;10.57;3.80;;;9.70;80.20;;;;;;5091410;28;20054;-66
2021/03/29 05:26:48;;;;;;;11.33;4.60;;;9.70;80.20;;;;;;5090572;28;20101;-67
2021/03/29 05:29:13;;;;;;;7.73;4.20;;;9.70;80.30;;;;;;5090658;28;20652;-67
2021/03/29 05:31:40;;;;;;;15.03;4.30;;;9.70;80.40;;;;;;5090669;28;20051;-67
2021/03/29 05:34:11;;;;;;;13.27;4.30;;;9.60;80.40;;;;;;5090680;28;20060;-67
2021/03/29 05:36:38;;;;;;;12.40;4.78;;;9.60;80.40;;;;;;5090201;28;20306;-67
2021/03/29 05:39:06;;;;;;;10.93;4.13;;;9.70;80.50;;;;;;5090911;28;20048;-67
2021/03/29 05:41:32;;;;;;;12.33;4.40;;;9.60;80.60;;;;;;5090540;28;20844;-67
2021/03/29 05:43:58;;;;;;;10.80;4.63;;;9.60;80.60;;;;;;5089888;28;20302;-67
2021/03/29 05:46:23;;;;;;;21.37;4.87;;;9.60;80.60;;;;;;5091055;28;20139;-66
2021/03/29 05:48:49;;;;;;;12.27;4.60;;;9.60;80.70;;;;;;5090335;28;20759;-66
2021/03/29 05:51:15;;;;;;;10.73;4.13;;;9.60;80.80;;;;;;5090117;28;20434;-67
2021/03/29 05:53:41;;;;;;;14.10;4.87;;;9.60;80.80;;;;;;5090773;28;20048;-66
2021/03/29 05:56:09;;;;;;;9.30;4.33;;;9.60;80.80;;;;;;5090648;28;20705;-66
2021/03/29 05:58:44;;;;;;;10.07;4.23;;;9.70;80.80;;;;;;5089894;28;20052;-67
2021/03/29 06:01:09;;;;;;;11.87;5.23;;;9.70;80.70;;;;;;5094279;28;20309;-66
2021/03/29 06:03:39;;;;;;;11.10;5.77;;;9.70;80.70;;;;;;5094686;28;20295;-66
2021/03/29 06:06:13;;;;;;;7.82;3.90;;;9.80;80.70;;;;;;5093800;28;20063;-66
2021/03/29 06:08:43;;;;;;;11.00;5.35;;;9.80;80.60;;;;;;5094543;28;20048;-66
2021/03/29 06:11:21;;;;;;;10.17;4.77;;;9.80;80.40;;;;;;5093459;28;20048;-66
2021/03/29 06:13:47;;;;;;;12.00;4.80;;;9.90;80.40;;;;;;5093625;28;20302;-67
2021/03/29 06:16:14;;;;;;;12.60;5.30;;;9.90;80.40;;;;;;5094562;28;20309;-66
2021/03/29 06:18:51;;;;;;;13.13;4.43;;;9.90;80.50;;;;;;5093489;28;20059;-67
2021/03/29 06:21:17;;;;;;;10.73;4.23;;;9.90;80.40;;;;;;5094412;28;20743;-67
2021/03/29 06:23:58;;;;;;;9.60;4.87;;;10.00;80.30;;;;;;5094134;28;20336;-67
2021/03/29 06:26:30;;;;;;;9.80;4.30;;;10.10;80.20;;;;;;5093299;28;20047;-67
2021/03/29 06:28:56;;;;;;;12.70;4.17;;;10.10;80.20;;;;;;5101166;28;20370;-66
2021/03/29 06:31:33;;;;;;;11.13;4.47;;;10.10;80.20;;;;;;5114454;28;20109;-67
2021/03/29 06:33:59;;;;;;;13.13;4.77;;;10.30;80.00;;;;;;5113335;28;20044;-67
2021/03/29 06:36:26;;;;;;;10.20;4.30;;;10.60;79.70;;;;;;5114368;28;20055;-67
2021/03/29 06:38:53;;;;;;;11.90;4.70;;;10.80;78.90;;;;;;5113690;28;20325;-67
2021/03/29 06:41:28;;;;;;;13.63;4.60;;;10.90;78.80;;;;;;5113800;28;20101;-67
2021/03/29 06:43:54;;;;;;;11.00;3.70;;;11.10;78.60;;;;;;5113556;28;20133;-68
2021/03/29 06:46:27;;;;;;;11.07;4.20;;;11.20;78.10;;;;;;5113495;28;20054;-68
2021/03/29 06:48:56;;;;;;;14.17;4.10;;;11.20;77.60;;;;;;5113635;28;20082;-67
2021/03/29 06:51:33;;;;;;;11.30;3.50;;;11.10;77.50;;;;;;5114097;28;20120;-67
2021/03/29 06:54:06;;;;;;;14.17;5.07;;;11.00;77.80;;;;;;5113212;28;20052;-68
2021/03/29 06:56:33;;;;;;;11.27;4.80;;;11.10;78.20;;;;;;5113882;28;20489;-68
2021/03/29 06:59:05;;;;;;;10.47;4.30;;;11.40;77.50;;;;;;5095567;28;20048;-65
2021/03/29 07:01:37;;;;;;;9.83;4.10;;;11.40;76.80;;;;;;5113049;28;20097;-67
2021/03/29 07:04:05;;;;;;;;;;;11.30;76.70;;;;;;5114046;28;20105;-67
2021/03/29 07:06:34;;;;;;;14.90;4.13;;;11.20;76.60;;;;;;5114025;28;19919;-67
2021/03/29 07:11:29;;;;;;;17.40;4.37;;;11.30;77.40;;;;;;5112912;28;20081;-68
2021/03/29 07:13:56;;;;;;;14.03;3.43;;;11.30;77.00;;;;;;5113199;28;20077;-67
2021/03/29 07:16:27;;;;;;;12.33;3.97;;;11.40;77.30;;;;;;5112811;28;20510;-66
2021/03/29 07:18:57;;;;;;;11.80;4.18;;;11.50;77.20;;;;;;5113349;28;20130;-66
2021/03/29 07:21:24;;;;;;;13.23;4.47;;;11.60;76.70;;;;;;5113830;28;20044;-67
2021/03/29 07:23:51;;;;;;;13.30;4.50;;;11.60;76.80;;;;;;5112342;28;20048;-67
2021/03/29 07:26:33;;;;;;;9.10;3.40;;;11.60;76.80;;;;;;5113332;28;20043;-67
2021/03/29 07:29:14;;;;;;;;;;;11.70;76.50;;;;;;5112759;28;20122;-67
2021/03/29 07:31:42;;;;;;;11.50;4.37;;;11.70;76.00;;;;;;5113280;28;19923;-67
2021/03/29 07:34:12;;;;;;;17.03;4.30;;;11.80;76.80;;;;;;5113101;28;20047;-66
2021/03/29 07:36:48;;;;;;;10.43;3.97;;;11.90;76.70;;;;;;5112454;28;20051;-67
2021/03/29 07:39:21;;;;;;;13.17;4.37;;;12.10;76.10;;;;;;5113039;28;20116;-67
2021/03/29 07:41:47;;;;;;;13.10;3.80;;;12.10;75.70;;;;;;5112613;28;20047;-68
2021/03/29 07:44:15;;;;;;;13.07;4.60;;;12.20;75.90;;;;;;5112429;28;20048;-68
2021/03/29 07:46:47;;;;;;;9.90;3.80;;;12.30;75.90;;;;;;5112715;28;20051;-66
2021/03/29 07:49:47;;;;;;;15.17;4.63;;;12.30;75.50;;;;;;5094746;28;20047;-66
2021/03/29 07:52:28;;;;;;;15.03;4.30;;;12.40;75.20;;;;;;5113209;28;20051;-67
2021/03/29 07:54:55;;;;;;;12.10;3.57;;;12.40;75.60;;;;;;5112443;28;20408;-67
2021/03/29 07:57:46;;;;;;;12.17;3.83;;;12.40;75.80;;;;;;5112299;28;20054;-66
2021/03/29 08:00:25;;;;;;;12.20;3.83;;;12.50;75.30;;;;;;5112914;28;20050;-66
2021/03/29 08:02:52;;;;;;;9.70;3.97;;;12.60;74.90;;;;;;5112485;28;20881;-67
2021/03/29 08:05:40;;;;;;;12.47;4.13;;;12.70;75.30;;;;;;5112278;28;20043;-66
2021/03/29 08:08:27;;;;;;;12.70;3.93;;;12.80;74.90;;;;;;5112487;28;20055;-66
2021/03/29 08:11:17;;;;;;;13.83;4.40;;;13.20;74.60;;;;;;5111650;28;20377;-67
2021/03/29 08:13:57;;;;;;;10.70;3.70;;;13.40;73.60;;;;;;5112483;28;20044;-66
2021/03/29 08:16:28;;;;;;;15.10;5.83;;;13.60;74.10;;;;;;5112526;28;20078;-66
2021/03/29 08:19:14;;;;;;;15.17;4.37;;;14.00;73.40;;;;;;5111045;28;20126;-66
2021/03/29 08:22:04;;;;;;;12.73;4.67;;;14.30;72.20;;;;;;5112386;28;20053;-67
2021/03/29 08:24:38;;;;;;;9.03;3.57;;;14.40;71.40;;;;;;5111769;28;20043;-67
2021/03/29 08:27:14;;;;;;;14.05;3.85;;;14.50;72.40;;;;;;5110583;28;20116;-65
2021/03/29 08:29:42;;;;;;;13.60;4.57;;;14.50;73.00;;;;;;5111237;28;20046;-65
2021/03/29 08:32:23;;;;;;;14.23;4.27;;;14.50;72.00;;;;;;5110909;28;20830;-67
2021/03/29 08:35:05;;;;;;;16.10;5.03;;;14.70;70.40;;;;;;5111672;28;20045;-67
2021/03/29 08:37:34;;;;;;;15.60;4.97;;;14.70;70.80;;;;;;5112149;28;20047;-66
2021/03/29 08:40:05;;;;;;;;;;;14.60;71.30;;;;;;5111712;28;20458;-67
2021/03/29 08:42:33;;;;;;;13.93;4.27;;;14.80;69.50;;;;;;5112234;28;19934;-67
2021/03/29 08:45:01;;;;;;;14.07;4.67;;;15.00;71.30;;;;;;5111663;28;20173;-68
2021/03/29 08:47:27;;;;;;;15.40;4.87;;;15.30;70.60;;;;;;5111230;28;20043;-67
2021/03/29 08:50:01;;;;;;;15.73;5.20;;;15.40;70.20;;;;;;5111396;28;20133;-67
2021/03/29 08:52:39;;;;;;;12.87;4.80;;;15.40;69.40;;;;;;5112246;28;20060;-67
2021/03/29 08:55:08;;;;;;;16.47;4.20;;;15.30;69.00;;;;;;5110908;28;20058;-67
2021/03/29 08:57:33;;;;;;;14.17;4.40;;;15.40;69.60;;;;;;5111696;28;20081;-67
2021/03/29 09:00:01;;;;;;;15.57;4.60;;;15.30;69.30;;;;;;5110631;28;20434;-67
2021/03/29 09:02:27;;;;;;;20.87;5.23;;;15.30;68.80;;;;;;5111508;28;20043;-66
2021/03/29 09:05:00;;;;;;;18.07;5.10;;;15.10;69.00;;;;;;5111270;28;20142;-68
2021/03/29 09:07:38;;;;;;;17.07;5.30;;;15.20;68.50;;;;;;5111212;28;20048;-66
2021/03/29 09:10:35;;;;;;;18.07;6.77;;;15.50;68.50;;;;;;5111530;28;20400;-68
2021/03/29 09:13:07;;;;;;;13.77;4.50;;;15.40;67.10;;;;;;5111189;28;20160;-67
2021/03/29 09:15:36;;;;;;;11.57;3.97;;;15.30;68.60;;;;;;5110727;28;20047;-67
2021/03/29 09:18:11;;;;;;;15.67;4.73;;;15.30;68.50;;;;;;5111424;28;20051;-67
2021/03/29 09:20:40;;;;;;;16.00;4.40;;;15.00;68.30;;;;;;5111301;28;20047;-67
2021/03/29 09:23:06;;;;;;;12.07;4.50;;;14.90;69.10;;;;;;5110596;28;20059;-67
2021/03/29 09:25:38;;;;;;;12.37;5.20;;;14.80;69.00;;;;;;5111191;28;20090;-68
2021/03/29 09:28:08;;;;;;;15.10;4.70;;;14.70;68.90;;;;;;5110287;28;20046;-67
2021/03/29 09:30:35;;;;;;;27.97;12.27;;;14.60;69.50;;;;;;5110548;28;20075;-67
2021/03/29 09:33:01;;;;;;;16.53;5.37;;;14.60;70.00;;;;;;5111155;28;20553;-67
2021/03/29 09:35:27;;;;;;;19.77;7.63;;;14.50;69.80;;;;;;5113527;28;20055;-67
2021/03/29 09:37:53;;;;;;;11.37;4.50;;;14.50;69.60;;;;;;5115010;28;20040;-67
2021/03/29 09:40:19;;;;;;;14.73;5.63;;;14.50;69.70;;;;;;5115805;28;20047;-66
2021/03/29 09:42:49;;;;;;;31.27;10.80;;;14.40;69.90;;;;;;5113656;28;20418;-66
2021/03/29 09:45:23;;;;;;;27.63;10.53;;;14.40;70.20;;;;;;5115367;28;20059;-67
2021/03/29 09:48:08;;;;;;;21.03;9.70;;;14.30;70.70;;;;;;5114988;28;20079;-67
2021/03/29 09:50:38;;;;;;;14.93;6.70;;;14.20;71.20;;;;;;5114362;28;20050;-68
2021/03/29 09:53:20;;;;;;;15.33;5.37;;;14.20;71.30;;;;;;5115238;28;20062;-66
2021/03/29 09:56:06;;;;;;;20.47;7.50;;;14.30;71.10;;;;;;5099517;28;20510;-67
2021/03/29 09:58:43;;;;;;;24.63;9.83;;;14.30;71.20;;;;;;5114227;28;20044;-68
2021/03/29 10:01:20;;;;;;;23.77;8.60;;;14.40;71.40;;;;;;5115154;28;20108;-67
2021/03/29 10:04:00;;;;;;;20.60;7.40;;;14.40;71.00;;;;;;5114113;28;20082;-67
2021/03/29 10:06:28;;;;;;;26.60;11.37;;;14.40;71.20;;;;;;5115017;28;20457;-67
2021/03/29 10:08:57;;;;;;;21.70;9.07;;;14.50;71.60;;;;;;5114470;28;20043;-67
2021/03/29 10:11:24;;;;;;;22.13;8.83;;;14.50;71.40;;;;;;5114275;28;20055;-67
2021/03/29 10:13:50;;;;;;;24.73;9.73;;;14.50;71.70;;;;;;5114464;28;20047;-67
2021/03/29 10:16:23;;;;;;;23.53;8.70;;;14.60;71.50;;;;;;5114878;28;20047;-67
2021/03/29 10:19:05;;;;;;;22.97;7.67;;;14.60;72.00;;;;;;5113699;28;20040;-67
2021/03/29 10:21:59;;;;;;;16.60;6.03;;;14.60;70.80;;;;;;5114668;28;20069;-67
2021/03/29 10:24:25;;;;;;;29.63;10.17;;;14.70;70.70;;;;;;5113887;28;20039;-67
2021/03/29 10:26:55;;;;;;;18.23;7.37;;;14.70;71.00;;;;;;5114198;28;20058;-66
2021/03/29 10:29:35;;;;;;;18.63;7.13;;;14.70;70.70;;;;;;5114796;28;20043;-67
2021/03/29 10:32:02;;;;;;;17.17;5.43;;;14.60;70.70;;;;;;5113598;28;20192;-66
2021/03/29 10:34:28;;;;;;;23.93;9.77;;;14.60;71.10;;;;;;5114518;28;20052;-66
2021/03/29 10:36:53;;;;;;;17.97;6.80;;;14.60;71.20;;;;;;5113906;28;20411;-66
2021/03/29 10:39:19;;;;;;;19.37;7.27;;;14.70;71.10;;;;;;5113725;28;20043;-66
2021/03/29 10:41:45;;;;;;;18.93;6.33;;;14.70;71.10;;;;;;5113765;28;20405;-66
2021/03/29 10:44:11;;;;;;;18.27;5.40;;;14.70;70.80;;;;;;5114205;28;20048;-66
2021/03/29 10:46:37;;;;;;;14.60;6.47;;;14.80;71.00;;;;;;5111934;28;20067;-66
2021/03/29 10:49:02;;;;;;;15.23;5.50;;;14.80;70.80;;;;;;5114273;28;20071;-66
2021/03/29 10:51:28;;;;;;;22.07;6.10;;;14.90;70.40;;;;;;5114288;28;20054;-66
2021/03/29 10:53:53;;;;;;;15.10;6.20;;;15.00;71.30;;;;;;5113086;28;20097;-68
2021/03/29 10:56:19;;;;;;;14.43;6.07;;;15.00;70.10;;;;;;5114148;28;20048;-67
2021/03/29 10:58:44;;;;;;;15.23;6.03;;;15.10;71.00;;;;;;5113631;28;20052;-68
2021/03/29 11:01:10;;;;;;;17.00;6.03;;;15.10;70.10;;;;;;5113232;28;20047;-67
2021/03/29 11:03:36;;;;;;;15.83;6.07;;;15.10;69.90;;;;;;5113649;28;20044;-68
2021/03/29 11:06:02;;;;;;;17.33;5.63;;;15.20;69.90;;;;;;5113757;28;20047;-68
2021/03/29 11:08:27;;;;;;;16.67;6.03;;;15.40;69.90;;;;;;5113110;28;20545;-68
2021/03/29 11:10:53;;;;;;;17.97;6.07;;;15.50;69.60;;;;;;5113156;28;20453;-67
2021/03/29 11:13:19;;;;;;;16.40;6.27;;;15.50;69.40;;;;;;5113534;28;20044;-67
2021/03/29 11:15:44;;;;;;;16.27;6.57;;;15.60;69.30;;;;;;5112713;28;20047;-68
2021/03/29 11:18:11;;;;;;;16.33;5.60;;;15.60;69.00;;;;;;5095370;28;20051;-68
2021/03/29 11:20:37;;;;;;;15.43;5.67;;;15.70;69.00;;;;;;5112725;28;20055;-68
2021/03/29 11:23:02;;;;;;;17.03;6.57;;;15.70;68.80;;;;;;5113407;28;20477;-68
2021/03/29 11:25:28;;;;;;;18.20;6.03;;;15.70;68.80;;;;;;5113580;28;20053;-67
2021/03/29 11:27:54;;;;;;;21.53;6.40;;;15.80;68.50;;;;;;5112187;28;20048;-68
2021/03/29 11:30:20;;;;;;;15.73;5.20;;;15.80;68.50;;;;;;5113473;28;20043;-68
2021/03/29 11:32:46;;;;;;;14.67;5.93;;;15.90;68.40;;;;;;5112771;28;20079;-68
2021/03/29 11:35:12;;;;;;;17.73;5.53;;;16.00;68.30;;;;;;5112770;28;20082;-68
2021/03/29 11:37:39;;;;;;;19.07;5.07;;;16.00;68.00;;;;;;5112840;28;20039;-68
2021/03/29 11:40:05;;;;;;;18.10;5.83;;;16.00;67.80;;;;;;5112888;28;20146;-68
2021/03/29 11:42:32;;;;;;;17.23;5.53;;;16.00;68.10;;;;;;5112173;28;20557;-68
2021/03/29 11:44:57;;;;;;;17.07;5.63;;;16.00;67.90;;;;;;5110191;28;20059;-68
2021/03/29 11:47:23;;;;;;;18.23;7.13;;;16.10;67.60;;;;;;5113087;28;20048;-68
2021/03/29 11:49:49;;;;;;;15.90;5.77;;;16.20;67.10;;;;;;5112105;28;20043;-68
2021/03/29 11:52:15;;;;;;;15.63;5.27;;;16.10;67.00;;;;;;5112954;28;20062;-68
2021/03/29 11:54:41;;;;;;;16.47;5.00;;;16.10;68.00;;;;;;5112687;28;20075;-68
2021/03/29 11:57:07;;;;;;;17.63;5.93;;;16.10;66.90;;;;;;5111612;28;20063;-67
2021/03/29 11:59:33;;;;;;;20.33;5.73;;;16.00;66.90;;;;;;5112422;28;20084;-68
2021/03/29 12:02:09;;;;;;;18.43;5.33;;;16.00;67.10;;;;;;5112519;28;20043;-68
2021/03/29 12:04:42;;;;;;;14.83;4.83;;;16.10;67.00;;;;;;5112063;28;20051;-68
2021/03/29 12:07:23;;;;;;;15.53;5.20;;;16.20;66.90;;;;;;5112608;28;20391;-68
2021/03/29 12:11:50;;;;;;;16.42;5.47;;;16.30;66.80;;;;;;5111782;28;20096;-68
2021/03/29 12:12:40;;;;;;;13.93;4.87;;;16.40;66.60;;;;;;5111541;28;20050;-68
2021/03/29 12:15:10;;;;;;;14.50;4.83;;;16.50;66.00;;;;;;5112273;28;20206;-68
2021/03/29 12:17:37;;;;;;;15.13;5.28;;;16.50;65.90;;;;;;5111721;28;20095;-68
2021/03/29 12:20:05;;;;;;;18.20;4.87;;;16.60;66.00;;;;;;5112303;28;20056;-68
2021/03/29 12:22:31;;;;;;;14.40;5.33;;;16.70;65.60;;;;;;5112323;28;20176;-68
2021/03/29 12:24:59;;;;;;;16.03;5.37;;;16.70;64.90;;;;;;5111215;28;20119;-67
2021/03/29 12:27:26;;;;;;;17.03;5.53;;;16.70;64.70;;;;;;5112046;28;20527;-68
2021/03/29 12:29:53;;;;;;;12.57;4.47;;;16.70;64.80;;;;;;5111722;28;20047;-69
2021/03/29 12:32:20;;;;;;;13.93;4.93;;;16.70;64.90;;;;;;5111586;28;20048;-68
2021/03/29 12:34:49;;;;;;;13.20;4.83;;;16.80;64.70;;;;;;5111494;28;20127;-69
2021/03/29 12:37:18;;;;;;;16.20;4.57;;;16.90;64.60;;;;;;5112296;28;20108;-69
2021/03/29 12:39:53;;;;;;;15.53;5.30;;;17.00;64.60;;;;;;5111057;28;20481;-68
2021/03/29 12:42:24;;;;;;;12.80;4.63;;;17.00;64.20;;;;;;5112392;28;20510;-67
2021/03/29 12:44:50;;;;;;;15.65;4.72;;;17.00;63.50;;;;;;5111389;28;20059;-67
2021/03/29 12:47:18;;;;;;;15.97;4.60;;;17.00;63.50;;;;;;5111208;28;20093;-67
2021/03/29 12:49:44;;;;;;;16.33;5.33;;;16.90;63.80;;;;;;5111382;28;20051;-68
2021/03/29 12:52:10;;;;;;;16.63;5.47;;;16.90;63.80;;;;;;5111249;28;20047;-67
2021/03/29 12:54:37;;;;;;;15.33;5.20;;;17.00;63.70;;;;;;5111422;28;20044;-68
2021/03/29 12:57:04;;;;;;;17.57;5.00;;;17.00;63.70;;;;;;5111630;28;20105;-67
2021/03/29 12:59:31;;;;;;;16.80;4.63;;;17.10;63.80;;;;;;5111295;28;20092;-67